Time;durP1;ratioP1;P1;durP2;ratioP2;P2;SDS_P1;SDS_P2;PMS_P1;PMS_P2;Temp;Humidity;BMP_temperature;BMP_pressure;BME280_temperature;BME280_humidity;BME280_pressure;Samples;Min_cycle;Max_cycle;Signal;HPM_P1;HPM_P2
2024/03/20 00:01:35;;;;;;;0.70;0.70;;;0.80;99.90;;;;;;5093101;28;20207;-76
2024/03/20 00:04:03;;;;;;;0.70;0.70;;;0.90;99.90;;;;;;5094502;28;20220;-77
2024/03/20 00:09:55;;;;;;;0.60;0.60;;;0.90;99.90;;;;;;5094387;28;20211;-77
2024/03/20 00:12:21;;;;;;;0.60;0.60;;;0.90;99.90;;;;;;5093964;28;20636;-77
2024/03/20 00:14:55;;;;;;;0.70;0.70;;;0.90;99.90;;;;;;5094151;28;20284;-76
2024/03/20 00:17:30;;;;;;;0.70;0.70;;;0.90;99.90;;;;;;5092140;28;20586;-77
2024/03/20 00:20:06;;;;;;;0.70;0.70;;;0.90;99.90;;;;;;5094034;28;20211;-77
2024/03/20 00:22:33;;;;;;;0.60;0.60;;;0.90;99.90;;;;;;5093832;28;20203;-77
2024/03/20 00:25:01;;;;;;;0.70;0.70;;;1.00;99.90;;;;;;5092062;28;20224;-77
2024/03/20 00:27:27;;;;;;;0.68;0.68;;;1.00;99.90;;;;;;5093765;28;20740;-77
2024/03/20 00:29:59;;;;;;;0.70;0.70;;;1.00;99.90;;;;;;5093826;28;20196;-76
2024/03/20 00:32:24;;;;;;;0.68;0.68;;;1.00;99.90;;;;;;5092294;28;20204;-77
2024/03/20 00:34:56;;;;;;;0.60;0.60;;;1.00;99.90;;;;;;5092828;28;20208;-77
2024/03/20 00:37:21;;;;;;;0.65;0.65;;;1.00;99.90;;;;;;5092492;28;20671;-77
2024/03/20 00:39:52;;;;;;;0.70;0.70;;;1.00;99.90;;;;;;5091824;28;20246;-77
2024/03/20 00:42:18;;;;;;;0.60;0.60;;;1.00;99.90;;;;;;5093942;28;20200;-77
2024/03/20 00:44:44;;;;;;;0.85;0.85;;;1.00;99.90;;;;;;5091388;28;20216;-77
2024/03/20 00:47:09;;;;;;;0.80;0.80;;;1.10;99.90;;;;;;5092402;28;20204;-77
2024/03/20 00:49:38;;;;;;;0.70;0.70;;;1.00;99.90;;;;;;5092205;28;20233;-77
2024/03/20 00:52:09;;;;;;;0.60;0.60;;;1.10;99.90;;;;;;5093542;28;20192;-77
2024/03/20 00:54:34;;;;;;;0.90;0.90;;;1.10;99.90;;;;;;5091828;28;20574;-76
2024/03/20 00:57:03;;;;;;;0.65;0.65;;;1.10;99.90;;;;;;5092082;28;20212;-77
2024/03/20 00:59:31;;;;;;;0.60;0.60;;;1.10;99.90;;;;;;5093334;28;20200;-77
2024/03/20 01:01:57;;;;;;;0.90;0.90;;;1.10;99.90;;;;;;5091477;28;20230;-77
2024/03/20 01:04:23;;;;;;;0.60;0.60;;;1.10;99.90;;;;;;5088344;28;20214;-77
2024/03/20 01:06:48;;;;;;;0.70;0.70;;;1.10;99.90;;;;;;5073167;28;20268;-77
2024/03/20 01:09:14;;;;;;;0.55;0.55;;;1.10;99.90;;;;;;5073122;28;20647;-77
2024/03/20 01:11:40;;;;;;;0.70;0.70;;;1.20;99.90;;;;;;5072889;28;20651;-77
2024/03/20 01:14:05;;;;;;;0.73;0.73;;;1.20;99.90;;;;;;5036559;28;20288;-77
2024/03/20 01:16:31;;;;;;;0.88;0.88;;;1.20;99.90;;;;;;5052663;28;20208;-76
2024/03/20 01:18:57;;;;;;;0.70;0.70;;;1.20;99.90;;;;;;5053073;28;20688;-76
2024/03/20 01:21:22;;;;;;;0.60;0.60;;;1.20;99.90;;;;;;5034546;28;20206;-77
2024/03/20 01:23:48;;;;;;;0.70;0.70;;;1.20;99.90;;;;;;5034595;28;20225;-77
2024/03/20 01:26:14;;;;;;;0.68;0.68;;;1.10;99.90;;;;;;5052611;28;20193;-77
2024/03/20 01:28:40;;;;;;;0.70;0.70;;;1.20;99.90;;;;;;5052521;28;20204;-77
2024/03/20 01:31:06;;;;;;;0.60;0.60;;;1.20;99.90;;;;;;5052516;28;20190;-77
2024/03/20 01:33:32;;;;;;;0.60;0.60;;;1.20;99.90;;;;;;5034468;28;20209;-77
2024/03/20 01:35:58;;;;;;;0.70;0.70;;;1.20;99.90;;;;;;5036515;28;20296;-77
2024/03/20 01:38:24;;;;;;;0.70;0.70;;;1.20;99.90;;;;;;5074591;28;20778;-80
2024/03/20 01:40:50;;;;;;;0.68;0.68;;;1.20;99.90;;;;;;5074555;28;20208;-80
2024/03/20 01:43:20;;;;;;;0.80;0.80;;;1.20;99.90;;;;;;5074517;28;20231;-80
2024/03/20 01:45:49;;;;;;;0.60;0.60;;;1.10;99.90;;;;;;5092525;28;20279;-80
2024/03/20 01:48:17;;;;;;;0.70;0.70;;;1.20;99.90;;;;;;5074354;28;20200;-80
2024/03/20 01:50:44;;;;;;;0.70;0.70;;;1.10;99.90;;;;;;5087963;28;20197;-81
2024/03/20 01:53:12;;;;;;;0.70;0.70;;;1.20;99.90;;;;;;5072420;28;20197;-81
2024/03/20 01:55:39;;;;;;;0.63;0.63;;;1.20;99.90;;;;;;5073165;28;20193;-81
2024/03/20 01:58:05;;;;;;;0.60;0.60;;;1.20;99.90;;;;;;5076315;28;20206;-81
2024/03/20 02:00:30;;;;;;;0.70;0.70;;;1.20;99.90;;;;;;5075995;28;20633;-80
2024/03/20 02:02:59;;;;;;;0.70;0.70;;;1.20;99.90;;;;;;5057937;28;20566;-80
2024/03/20 02:05:27;;;;;;;0.70;0.70;;;1.20;99.90;;;;;;5079744;28;20285;-80
2024/03/20 02:07:53;;;;;;;7.07;2.15;;;1.20;99.90;;;;;;5096547;28;20218;-80
2024/03/20 02:10:19;;;;;;;0.52;0.52;;;1.20;99.90;;;;;;5096126;28;20223;-80
2024/03/20 02:12:45;;;;;;;0.60;0.60;;;1.20;99.90;;;;;;5094905;28;20699;-81
2024/03/20 02:15:12;;;;;;;0.70;0.70;;;1.20;99.90;;;;;;5096153;28;20199;-80
2024/03/20 02:17:42;;;;;;;0.70;0.70;;;1.20;99.90;;;;;;5094793;28;20559;-81
2024/03/20 02:20:08;;;;;;;0.70;0.70;;;1.20;99.90;;;;;;5095127;28;20668;-81
2024/03/20 02:22:41;;;;;;;0.70;0.70;;;1.30;99.90;;;;;;5095692;28;20192;-81
2024/03/20 02:25:11;;;;;;;0.70;0.70;;;1.30;99.90;;;;;;5094747;28;20227;-80
2024/03/20 02:27:38;;;;;;;0.60;0.60;;;1.30;99.90;;;;;;5095767;28;20199;-81
2024/03/20 02:30:06;;;;;;;0.82;0.82;;;1.30;99.90;;;;;;5094346;28;20207;-80
2024/03/20 02:32:32;;;;;;;0.80;0.80;;;1.30;99.90;;;;;;5095536;28;20695;-80
2024/03/20 02:34:58;;;;;;;0.60;0.60;;;1.30;99.90;;;;;;5094917;28;20215;-80
2024/03/20 02:37:24;;;;;;;0.70;0.70;;;1.30;99.90;;;;;;5094449;28;20204;-80
2024/03/20 02:39:49;;;;;;;0.70;0.70;;;1.30;99.90;;;;;;5094410;28;20659;-80
2024/03/20 02:42:15;;;;;;;0.60;0.60;;;1.30;99.90;;;;;;5095785;28;20243;-81
2024/03/20 02:44:41;;;;;;;0.90;0.90;;;1.30;99.90;;;;;;5094161;28;20270;-81
2024/03/20 02:47:07;;;;;;;0.60;0.60;;;1.30;99.90;;;;;;5094475;28;20212;-76
2024/03/20 02:49:32;;;;;;;0.70;0.70;;;1.30;99.90;;;;;;5095415;28;20211;-76
2024/03/20 02:51:58;;;;;;;0.70;0.70;;;1.30;99.90;;;;;;5095634;28;20632;-76
2024/03/20 02:54:24;;;;;;;0.60;0.60;;;1.30;99.90;;;;;;5095356;28;20225;-76
2024/03/20 02:56:49;;;;;;;0.77;0.77;;;1.30;99.90;;;;;;5091866;28;20672;-77
2024/03/20 02:59:15;;;;;;;0.70;0.70;;;1.30;99.90;;;;;;5074000;28;20219;-76
2024/03/20 03:01:40;;;;;;;1.00;1.00;;;1.30;99.90;;;;;;5075240;28;20209;-76
2024/03/20 03:04:06;;;;;;;0.60;0.60;;;1.40;99.90;;;;;;5074755;28;20597;-76
2024/03/20 03:06:32;;;;;;;0.57;0.57;;;1.40;99.90;;;;;;5074972;28;20595;-76
2024/03/20 03:08:57;;;;;;;0.70;0.70;;;1.40;99.90;;;;;;5073174;28;20216;-77
2024/03/20 03:11:23;;;;;;;0.60;0.60;;;1.40;99.90;;;;;;5075111;28;20284;-76
2024/03/20 03:13:49;;;;;;;0.70;0.70;;;1.40;99.90;;;;;;5074930;28;20673;-77
2024/03/20 03:16:14;;;;;;;0.50;0.50;;;1.40;99.90;;;;;;5075029;28;20203;-76
2024/03/20 03:18:40;;;;;;;0.60;0.60;;;1.40;99.90;;;;;;5074772;28;20228;-76
2024/03/20 03:21:12;;;;;;;0.65;0.65;;;1.40;99.90;;;;;;5073596;28;20209;-76
2024/03/20 03:23:38;;;;;;;0.80;0.80;;;1.50;99.90;;;;;;5074586;28;21230;-76
2024/03/20 03:26:04;;;;;;;0.80;0.80;;;1.50;99.90;;;;;;5074893;28;20691;-76
2024/03/20 03:28:31;;;;;;;0.70;0.70;;;1.40;99.90;;;;;;5075445;28;20189;-76
2024/03/20 03:30:58;;;;;;;0.73;0.73;;;1.50;99.90;;;;;;5074675;28;20203;-76
2024/03/20 03:33:23;;;;;;;0.90;0.90;;;1.40;99.90;;;;;;5074427;28;20230;-76
2024/03/20 03:35:49;;;;;;;0.60;0.60;;;1.40;99.90;;;;;;5073671;28;20212;-76
2024/03/20 03:38:14;;;;;;;1.10;1.10;;;1.40;99.90;;;;;;5073273;28;20308;-76
2024/03/20 03:40:40;;;;;;;0.60;0.60;;;1.50;99.90;;;;;;5074367;28;20233;-76
2024/03/20 03:43:06;;;;;;;0.60;0.60;;;1.50;99.90;;;;;;5077379;28;20376;-76
2024/03/20 03:45:31;;;;;;;0.63;0.63;;;1.50;99.90;;;;;;5093115;28;20206;-76
2024/03/20 03:47:57;;;;;;;0.60;0.60;;;1.50;99.90;;;;;;5093286;28;20667;-76
2024/03/20 03:50:23;;;;;;;0.80;0.80;;;1.50;99.90;;;;;;5093179;28;20200;-76
2024/03/20 03:52:49;;;;;;;0.85;0.85;;;1.50;99.90;;;;;;5093124;28;20204;-76
2024/03/20 03:55:15;;;;;;;0.95;0.73;;;1.50;99.90;;;;;;5094594;28;20203;-76
2024/03/20 03:57:41;;;;;;;0.68;0.68;;;1.50;99.90;;;;;;5094395;28;20302;-80
2024/03/20 04:00:09;;;;;;;0.68;0.68;;;1.40;99.90;;;;;;5092337;28;20200;-80
2024/03/20 04:02:36;;;;;;;0.68;0.68;;;1.50;99.90;;;;;;5085685;28;20212;-80
2024/03/20 04:05:04;;;;;;;1.13;1.02;;;1.50;99.90;;;;;;5092599;28;20224;-80
2024/03/20 04:07:30;;;;;;;0.60;0.60;;;1.50;99.90;;;;;;5092817;28;20265;-79
2024/03/20 04:09:55;;;;;;;0.63;0.63;;;1.50;99.90;;;;;;5094295;28;20277;-79
2024/03/20 04:12:21;;;;;;;0.60;0.60;;;1.50;99.90;;;;;;5093915;28;20196;-80
2024/03/20 04:14:47;;;;;;;0.70;0.70;;;1.50;99.90;;;;;;5093904;28;20222;-80
2024/03/20 04:17:12;;;;;;;0.90;0.90;;;1.50;99.90;;;;;;5094069;28;20200;-80
2024/03/20 04:19:38;;;;;;;1.17;1.17;;;1.50;99.90;;;;;;5093717;28;20208;-80
2024/03/20 04:22:04;;;;;;;0.73;0.73;;;1.50;99.90;;;;;;5092582;28;20211;-80
2024/03/20 04:24:30;;;;;;;0.85;0.85;;;1.50;99.90;;;;;;5092362;28;20316;-79
2024/03/20 04:26:55;;;;;;;0.80;0.80;;;1.50;99.90;;;;;;5093561;28;20204;-80
2024/03/20 04:29:21;;;;;;;0.80;0.80;;;1.50;99.90;;;;;;5093513;28;20671;-81
2024/03/20 04:31:47;;;;;;;0.68;0.68;;;1.50;99.90;;;;;;5093617;28;20192;-79
2024/03/20 04:34:13;;;;;;;0.70;0.70;;;1.50;99.90;;;;;;5093662;28;20207;-80
2024/03/20 04:36:38;;;;;;;0.80;0.80;;;1.50;99.90;;;;;;5093462;28;20215;-80
2024/03/20 04:39:07;;;;;;;0.63;0.63;;;1.50;99.90;;;;;;5093485;28;20200;-80
2024/03/20 04:41:33;;;;;;;0.70;0.70;;;1.50;99.90;;;;;;5093284;28;20196;-80
2024/03/20 04:43:59;;;;;;;0.88;0.88;;;1.50;99.90;;;;;;5091880;28;20589;-80
2024/03/20 04:46:24;;;;;;;0.70;0.70;;;1.40;99.90;;;;;;5091814;28;20200;-81
2024/03/20 04:48:50;;;;;;;0.70;0.70;;;1.40;99.90;;;;;;5093413;28;20219;-79
2024/03/20 04:51:16;;;;;;;0.60;0.60;;;1.40;99.90;;;;;;5074661;28;20193;-79
2024/03/20 04:53:41;;;;;;;0.68;0.68;;;1.40;99.90;;;;;;5072679;28;20201;-80
2024/03/20 04:56:07;;;;;;;0.77;0.77;;;1.40;99.90;;;;;;5072940;28;20197;-80
2024/03/20 04:58:33;;;;;;;0.80;0.80;;;1.40;99.90;;;;;;5072861;28;20281;-80
2024/03/20 05:00:58;;;;;;;1.10;1.00;;;1.40;99.90;;;;;;5071507;28;20209;-79
2024/03/20 05:03:24;;;;;;;0.80;0.80;;;1.40;99.90;;;;;;5072550;28;20299;-80
2024/03/20 05:05:50;;;;;;;0.80;0.80;;;1.40;99.90;;;;;;5072773;28;20239;-80
2024/03/20 05:08:15;;;;;;;0.70;0.70;;;1.40;99.90;;;;;;5072973;28;20227;-76
2024/03/20 05:10:42;;;;;;;0.77;0.77;;;1.40;99.90;;;;;;5072767;28;20228;-76
2024/03/20 05:13:08;;;;;;;0.60;0.60;;;1.40;99.90;;;;;;5071498;28;20197;-76
2024/03/20 05:15:39;;;;;;;0.70;0.70;;;1.40;99.90;;;;;;5072548;28;20197;-76
2024/03/20 05:18:05;;;;;;;0.70;0.70;;;1.40;99.90;;;;;;5072819;28;20200;-76
2024/03/20 05:20:30;;;;;;;1.15;1.13;;;1.40;99.90;;;;;;5071271;28;20201;-77
2024/03/20 05:22:56;;;;;;;0.60;0.60;;;1.40;99.90;;;;;;5089922;28;20199;-76
2024/03/20 05:25:22;;;;;;;0.60;0.60;;;1.50;99.90;;;;;;5092795;28;20200;-76
2024/03/20 05:27:47;;;;;;;0.70;0.70;;;1.40;99.90;;;;;;5092885;28;20604;-76
2024/03/20 05:30:13;;;;;;;0.60;0.60;;;1.50;99.90;;;;;;5092510;28;20245;-76
2024/03/20 05:32:39;;;;;;;0.70;0.70;;;1.50;99.90;;;;;;5091248;28;20291;-76
2024/03/20 05:35:06;;;;;;;0.90;0.90;;;1.50;99.90;;;;;;5092689;28;20209;-76
2024/03/20 05:37:31;;;;;;;0.63;0.63;;;1.50;99.90;;;;;;5091227;28;20690;-76
2024/03/20 05:39:57;;;;;;;0.60;0.60;;;1.50;99.90;;;;;;5092600;28;20294;-76
2024/03/20 05:42:25;;;;;;;1.30;1.15;;;1.50;99.90;;;;;;5091269;28;20249;-76
2024/03/20 05:44:50;;;;;;;0.70;0.70;;;1.50;99.90;;;;;;5091108;28;20223;-76
2024/03/20 05:47:16;;;;;;;0.98;0.98;;;1.50;99.90;;;;;;5092750;28;20206;-76
2024/03/20 05:49:45;;;;;;;0.63;0.63;;;1.60;99.90;;;;;;5091122;28;20203;-76
2024/03/20 05:52:10;;;;;;;0.70;0.70;;;1.60;99.90;;;;;;5091353;28;20200;-76
2024/03/20 05:54:36;;;;;;;1.15;1.08;;;1.60;99.90;;;;;;5092395;28;20674;-76
2024/03/20 05:57:05;;;;;;;0.70;0.70;;;1.60;99.90;;;;;;5092512;28;20196;-76
2024/03/20 05:59:30;;;;;;;0.80;0.80;;;1.60;99.90;;;;;;5091187;28;20208;-76
2024/03/20 06:01:56;;;;;;;0.65;0.65;;;1.60;99.90;;;;;;5091177;28;20204;-76
2024/03/20 06:04:22;;;;;;;0.70;0.70;;;1.60;99.90;;;;;;5090797;28;20322;-75
2024/03/20 06:06:48;;;;;;;0.70;0.70;;;1.70;99.90;;;;;;5091116;28;20207;-76
2024/03/20 06:09:14;;;;;;;0.70;0.70;;;1.70;99.90;;;;;;5091147;28;20219;-76
2024/03/20 06:11:41;;;;;;;0.80;0.80;;;1.70;99.90;;;;;;5090875;28;20208;-76
2024/03/20 06:14:06;;;;;;;0.80;0.80;;;1.70;99.90;;;;;;5091103;28;20732;-76
2024/03/20 06:16:32;;;;;;;0.50;0.50;;;1.70;99.90;;;;;;5092196;28;20286;-76
2024/03/20 06:18:57;;;;;;;1.05;1.05;;;1.70;99.90;;;;;;5091393;28;20208;-79
2024/03/20 06:21:23;;;;;;;0.60;0.60;;;1.70;99.90;;;;;;5091281;28;20217;-79
2024/03/20 06:23:49;;;;;;;0.73;0.73;;;1.80;99.90;;;;;;5092197;28;20216;-79
2024/03/20 06:26:15;;;;;;;0.80;0.80;;;1.80;99.90;;;;;;5091155;28;20231;-79
2024/03/20 06:28:40;;;;;;;0.60;0.60;;;1.80;99.90;;;;;;5092148;28;20192;-79
2024/03/20 06:31:06;;;;;;;0.73;0.73;;;1.80;99.90;;;;;;5092189;28;20200;-79
2024/03/20 06:33:34;;;;;;;0.90;0.90;;;1.80;99.90;;;;;;5092018;28;20196;-79
2024/03/20 06:35:59;;;;;;;1.30;1.20;;;1.80;99.90;;;;;;5090941;28;20228;-79
2024/03/20 06:38:25;;;;;;;1.10;1.10;;;1.90;99.90;;;;;;5092070;28;20235;-80
2024/03/20 06:40:51;;;;;;;0.80;0.80;;;1.90;99.90;;;;;;5075110;28;20625;-79
2024/03/20 06:43:17;;;;;;;1.52;1.42;;;1.90;99.90;;;;;;5073577;28;20204;-80
2024/03/20 06:45:49;;;;;;;1.20;1.10;;;1.80;99.90;;;;;;5074119;28;20205;-80
2024/03/20 06:48:18;;;;;;;0.70;0.70;;;1.90;99.90;;;;;;5075579;28;20217;-80
2024/03/20 06:50:48;;;;;;;0.80;0.80;;;1.90;99.90;;;;;;5075355;28;20204;-80
2024/03/20 06:53:14;;;;;;;0.70;0.70;;;1.90;99.90;;;;;;5075385;28;20228;-80
2024/03/20 06:55:43;;;;;;;0.70;0.70;;;1.90;99.90;;;;;;5073859;28;20232;-80
2024/03/20 06:58:11;;;;;;;0.70;0.70;;;1.90;99.90;;;;;;5075237;28;20233;-80
2024/03/20 07:00:37;;;;;;;0.70;0.70;;;2.00;99.90;;;;;;5075041;28;20209;-80
2024/03/20 07:03:03;;;;;;;1.55;1.45;;;2.00;99.90;;;;;;5073616;28;20212;-79
2024/03/20 07:05:30;;;;;;;0.73;0.73;;;2.00;99.90;;;;;;5074956;28;20221;-80
2024/03/20 07:07:56;;;;;;;0.70;0.70;;;2.00;99.90;;;;;;5073928;28;20637;-80
2024/03/20 07:10:21;;;;;;;0.70;0.70;;;2.10;99.90;;;;;;5074919;28;20288;-79
2024/03/20 07:12:47;;;;;;;0.80;0.80;;;2.10;99.90;;;;;;5073965;28;20555;-79
2024/03/20 07:15:13;;;;;;;0.80;0.80;;;2.10;99.90;;;;;;5090343;28;20200;-80
2024/03/20 07:17:39;;;;;;;1.65;1.55;;;2.10;99.90;;;;;;5094997;28;20688;-80
2024/03/20 07:20:08;;;;;;;0.60;0.60;;;2.20;99.90;;;;;;5093858;28;20563;-80
2024/03/20 07:22:33;;;;;;;1.10;1.10;;;2.20;99.90;;;;;;5093604;28;20207;-80
2024/03/20 07:25:00;;;;;;;0.77;0.77;;;2.40;99.90;;;;;;5095029;28;20599;-79
2024/03/20 07:27:26;;;;;;;0.70;0.70;;;2.50;99.90;;;;;;5094981;28;20241;-76
2024/03/20 07:29:52;;;;;;;0.93;0.93;;;2.60;99.90;;;;;;5093554;28;20670;-76
2024/03/20 07:32:17;;;;;;;0.80;0.80;;;2.70;99.90;;;;;;5094877;28;20192;-76
2024/03/20 07:34:44;;;;;;;1.00;1.00;;;2.80;99.90;;;;;;5093334;28;20774;-76
2024/03/20 07:37:09;;;;;;;16.88;2.05;;;2.80;99.90;;;;;;5093464;28;20578;-76
2024/03/20 07:39:36;;;;;;;0.70;0.70;;;3.00;99.90;;;;;;5087871;28;20283;-76
2024/03/20 07:42:03;;;;;;;0.80;0.80;;;3.10;99.90;;;;;;5073158;28;20216;-76
2024/03/20 07:44:30;;;;;;;0.77;0.77;;;3.20;99.90;;;;;;5072886;28;20217;-76
2024/03/20 07:46:59;;;;;;;0.80;0.80;;;3.20;99.90;;;;;;5074381;28;20189;-76
2024/03/20 07:49:25;;;;;;;0.82;0.82;;;3.10;99.90;;;;;;5072959;28;20223;-75
2024/03/20 07:51:52;;;;;;;1.40;1.30;;;3.10;99.90;;;;;;5073037;28;20711;-76
2024/03/20 07:54:24;;;;;;;0.60;0.60;;;3.10;99.90;;;;;;5072526;28;20216;-76
2024/03/20 07:56:56;;;;;;;0.70;0.70;;;3.20;99.90;;;;;;5074035;28;20221;-76
2024/03/20 07:59:23;;;;;;;0.80;0.80;;;3.20;99.90;;;;;;5074010;28;20351;-76
2024/03/20 08:01:50;;;;;;;0.70;0.70;;;3.20;99.90;;;;;;5074297;28;20200;-76
2024/03/20 08:04:16;;;;;;;0.75;0.75;;;3.20;99.90;;;;;;5072643;28;20684;-76
2024/03/20 08:06:41;;;;;;;0.90;0.90;;;3.30;99.90;;;;;;5072480;28;20594;-75
2024/03/20 08:09:08;;;;;;;1.75;1.50;;;3.30;99.90;;;;;;5073963;28;20203;-75
2024/03/20 08:11:35;;;;;;;0.70;0.70;;;3.30;99.90;;;;;;5089774;28;20292;-75
2024/03/20 08:14:07;;;;;;;0.70;0.70;;;3.40;99.90;;;;;;5092876;28;20296;-75
2024/03/20 08:16:37;;;;;;;1.10;1.00;;;3.50;99.90;;;;;;5093877;28;20223;-75
2024/03/20 08:19:06;;;;;;;0.70;0.70;;;3.50;99.90;;;;;;5093993;28;20200;-76
2024/03/20 08:21:33;;;;;;;0.80;0.80;;;3.60;99.90;;;;;;5092550;28;20204;-75
2024/03/20 08:23:59;;;;;;;0.80;0.80;;;3.60;99.90;;;;;;5093792;28;20737;-76
2024/03/20 08:26:25;;;;;;;0.77;0.77;;;3.60;99.90;;;;;;5093815;28;20220;-76
2024/03/20 08:28:51;;;;;;;0.90;0.90;;;3.60;99.90;;;;;;5092560;28;20246;-75
2024/03/20 08:31:18;;;;;;;0.80;0.80;;;3.60;99.90;;;;;;5094002;28;20204;-76
2024/03/20 08:33:44;;;;;;;0.70;0.70;;;3.50;99.90;;;;;;5092416;28;20221;-76
2024/03/20 08:36:10;;;;;;;0.80;0.80;;;3.50;99.90;;;;;;5074506;28;20204;-76
2024/03/20 08:38:36;;;;;;;0.70;0.70;;;3.50;99.90;;;;;;5073220;28;20207;-75
2024/03/20 08:41:05;;;;;;;0.80;0.80;;;3.40;99.90;;;;;;5073165;28;20681;-76
2024/03/20 08:43:34;;;;;;;0.75;0.75;;;3.30;99.90;;;;;;5071630;28;20299;-76
2024/03/20 08:46:08;;;;;;;0.73;0.73;;;3.20;99.90;;;;;;5071947;28;20749;-76
2024/03/20 08:48:37;;;;;;;0.90;0.90;;;3.20;99.90;;;;;;5072975;28;20196;-76
2024/03/20 08:51:03;;;;;;;0.80;0.80;;;3.20;99.90;;;;;;5073175;28;20642;-76
2024/03/20 08:53:32;;;;;;;0.60;0.60;;;3.20;99.90;;;;;;5071647;28;20204;-76
2024/03/20 08:55:58;;;;;;;0.65;0.65;;;3.20;99.90;;;;;;5071767;28;20810;-76
2024/03/20 08:58:24;;;;;;;0.63;0.63;;;3.20;99.90;;;;;;5071491;28;20247;-76
2024/03/20 09:00:50;;;;;;;0.70;0.70;;;3.20;99.90;;;;;;5071244;28;20201;-76
2024/03/20 09:03:16;;;;;;;0.82;0.82;;;3.20;99.90;;;;;;5071414;28;20232;-76
2024/03/20 09:05:41;;;;;;;1.42;1.33;;;3.20;99.90;;;;;;5071109;28;20596;-77
2024/03/20 09:08:10;;;;;;;0.60;0.60;;;3.20;99.90;;;;;;5091407;28;20204;-76
2024/03/20 09:10:36;;;;;;;0.80;0.80;;;3.30;99.90;;;;;;5093064;28;20223;-76
2024/03/20 09:13:05;;;;;;;0.77;0.77;;;3.40;99.90;;;;;;5093012;28;20617;-76
2024/03/20 09:15:31;;;;;;;0.77;0.77;;;3.50;99.90;;;;;;5075944;28;20262;-76
2024/03/20 09:17:56;;;;;;;0.70;0.70;;;3.50;99.90;;;;;;5072754;28;20205;-76
2024/03/20 09:20:25;;;;;;;0.73;0.73;;;3.40;99.90;;;;;;5072644;28;20189;-76
2024/03/20 09:22:52;;;;;;;1.27;1.17;;;3.30;99.90;;;;;;5071708;28;20232;-76
2024/03/20 09:25:20;;;;;;;0.90;0.90;;;3.30;99.90;;;;;;5078102;28;20586;-76
2024/03/20 09:27:46;;;;;;;0.60;0.60;;;3.30;99.90;;;;;;5091545;28;20253;-75
2024/03/20 09:30:15;;;;;;;0.70;0.70;;;3.30;99.90;;;;;;5092829;28;20195;-74
2024/03/20 09:32:45;;;;;;;1.42;1.33;;;3.30;99.90;;;;;;5091190;28;20200;-74
2024/03/20 09:35:12;;;;;;;0.80;0.80;;;3.30;99.90;;;;;;5092736;28;20196;-74
2024/03/20 09:37:38;;;;;;;0.73;0.73;;;3.40;99.90;;;;;;5092460;28;20290;-74
2024/03/20 09:40:10;;;;;;;0.95;0.95;;;3.50;99.90;;;;;;5092528;28;20290;-74
2024/03/20 09:42:38;;;;;;;0.60;0.60;;;3.50;99.90;;;;;;5091412;28;20231;-75
2024/03/20 09:45:04;;;;;;;0.63;0.63;;;3.50;99.90;;;;;;5092491;28;20231;-75
2024/03/20 09:47:32;;;;;;;0.70;0.70;;;3.50;99.90;;;;;;5091211;28;20249;-78
2024/03/20 09:49:58;;;;;;;0.60;0.60;;;3.50;99.90;;;;;;5092660;28;20196;-77
2024/03/20 09:52:25;;;;;;;0.70;0.70;;;3.50;99.90;;;;;;5092447;28;20202;-78
2024/03/20 09:54:55;;;;;;;0.70;0.70;;;3.50;99.90;;;;;;5091204;28;20215;-78
2024/03/20 09:57:26;;;;;;;0.70;0.70;;;3.50;99.90;;;;;;5091085;28;20204;-78
2024/03/20 09:59:52;;;;;;;0.60;0.60;;;3.50;99.90;;;;;;5092519;28;20573;-78
2024/03/20 10:02:21;;;;;;;0.60;0.60;;;3.50;99.90;;;;;;5092155;28;20196;-78
2024/03/20 10:04:46;;;;;;;0.60;0.60;;;3.50;99.90;;;;;;5090931;28;20232;-78
2024/03/20 10:07:13;;;;;;;0.55;0.55;;;3.50;99.90;;;;;;5092357;28;20204;-79
2024/03/20 10:09:41;;;;;;;2.45;2.25;;;3.60;99.90;;;;;;5090958;28;20294;-78
2024/03/20 10:12:08;;;;;;;0.60;0.60;;;3.70;99.90;;;;;;5091147;28;20778;-78
2024/03/20 10:14:35;;;;;;;1.15;1.15;;;3.70;99.90;;;;;;5090863;28;20694;-78
2024/03/20 10:17:14;;;;;;;0.70;0.70;;;3.80;99.90;;;;;;5093946;28;20631;-78
2024/03/20 10:19:41;;;;;;;1.88;1.05;;;3.80;99.90;;;;;;5096099;28;20675;-78
2024/03/20 10:22:06;;;;;;;2.28;1.15;;;3.80;99.90;;;;;;5096347;28;20279;-78
2024/03/20 10:24:33;;;;;;;1.13;1.08;;;3.80;99.90;;;;;;5094676;28;20735;-79
2024/03/20 10:27:02;;;;;;;0.60;0.60;;;3.80;99.90;;;;;;5095027;28;20698;-78
2024/03/20 10:29:29;;;;;;;0.70;0.70;;;3.80;99.90;;;;;;5094083;28;20229;-78
2024/03/20 10:31:57;;;;;;;0.70;0.70;;;3.90;99.90;;;;;;5096118;28;20192;-79
2024/03/20 10:34:24;;;;;;;0.80;0.80;;;4.00;99.90;;;;;;5094478;28;20291;-79
2024/03/20 10:36:51;;;;;;;0.85;0.82;;;4.00;99.90;;;;;;5094582;28;20204;-79
2024/03/20 10:39:17;;;;;;;0.80;0.80;;;4.10;99.90;;;;;;5094354;28;20254;-79
2024/03/20 10:41:48;;;;;;;0.60;0.60;;;4.10;99.90;;;;;;5095620;28;20258;-80
2024/03/20 10:44:16;;;;;;;1.08;1.08;;;4.10;99.90;;;;;;5094485;28;20224;-79
2024/03/20 10:46:47;;;;;;;0.70;0.70;;;4.20;99.90;;;;;;5094391;28;20567;-79
2024/03/20 10:49:23;;;;;;;0.60;0.60;;;4.30;99.90;;;;;;5095662;28;20540;-79
2024/03/20 10:51:51;;;;;;;0.70;0.70;;;4.30;99.90;;;;;;5094500;28;20286;-79
2024/03/20 10:54:18;;;;;;;1.95;1.40;;;4.20;99.90;;;;;;5094319;28;20204;-79
2024/03/20 10:56:50;;;;;;;1.50;1.35;;;4.20;99.90;;;;;;5095498;28;20222;-79
2024/03/20 10:59:19;;;;;;;0.50;0.50;;;4.10;99.90;;;;;;5093833;28;20278;-76
2024/03/20 11:02:14;;;;;;;0.75;0.75;;;4.00;99.90;;;;;;5094583;28;20265;-76
2024/03/20 11:04:41;;;;;;;0.90;0.90;;;4.00;99.90;;;;;;5089258;28;20289;-76
2024/03/20 11:07:25;;;;;;;1.05;1.05;;;4.00;99.90;;;;;;5095403;28;20223;-77
2024/03/20 11:09:51;;;;;;;0.70;0.70;;;4.10;99.90;;;;;;5094400;28;20203;-76
2024/03/20 11:12:36;;;;;;;0.70;0.70;;;4.20;99.90;;;;;;5095373;28;20215;-76
2024/03/20 11:15:06;;;;;;;0.90;0.90;;;4.20;99.90;;;;;;5093860;28;20212;-76
2024/03/20 11:17:36;;;;;;;0.57;0.57;;;4.10;99.90;;;;;;5093424;28;20204;-76
2024/03/20 11:20:04;;;;;;;0.68;0.68;;;4.10;99.90;;;;;;5095169;28;20283;-76
2024/03/20 11:22:32;;;;;;;0.57;0.57;;;4.00;99.90;;;;;;5093690;28;20204;-75
2024/03/20 11:24:58;;;;;;;0.70;0.70;;;4.10;99.90;;;;;;5093753;28;20254;-76
2024/03/20 11:27:24;;;;;;;0.80;0.80;;;4.10;99.90;;;;;;5093608;28;20232;-75
2024/03/20 11:29:51;;;;;;;0.60;0.60;;;4.20;99.90;;;;;;5093083;28;20234;-75
2024/03/20 11:32:22;;;;;;;0.70;0.70;;;4.20;99.90;;;;;;5094777;28;20530;-75
2024/03/20 11:34:48;;;;;;;0.63;0.63;;;4.20;99.90;;;;;;5093509;28;20207;-76
2024/03/20 11:37:18;;;;;;;0.80;0.80;;;4.30;99.90;;;;;;5094966;28;20594;-75
2024/03/20 11:39:45;;;;;;;1.15;1.15;;;4.30;99.90;;;;;;5093493;28;20232;-75
2024/03/20 11:42:14;;;;;;;0.70;0.70;;;4.30;99.90;;;;;;5093505;28;20211;-76
2024/03/20 11:44:40;;;;;;;0.60;0.60;;;4.30;99.90;;;;;;5094416;28;20212;-76
2024/03/20 11:47:13;;;;;;;0.60;0.60;;;4.30;99.90;;;;;;5094760;28;20264;-75
2024/03/20 11:49:47;;;;;;;0.50;0.50;;;4.20;99.90;;;;;;5093086;28;20250;-76
2024/03/20 11:52:17;;;;;;;0.70;0.70;;;4.20;99.90;;;;;;5094824;28;20200;-76
2024/03/20 11:54:46;;;;;;;0.60;0.60;;;4.30;99.90;;;;;;5094321;28;20196;-76
2024/03/20 11:57:13;;;;;;;0.70;0.70;;;4.30;99.90;;;;;;5074115;28;20610;-76
2024/03/20 11:59:47;;;;;;;0.88;0.88;;;4.30;99.90;;;;;;5074232;28;20201;-76
2024/03/20 12:02:21;;;;;;;1.00;1.00;;;4.30;99.90;;;;;;5073961;28;20204;-76
2024/03/20 12:04:48;;;;;;;1.00;1.00;;;4.40;99.90;;;;;;5073681;28;20228;-75
2024/03/20 12:07:32;;;;;;;0.70;0.70;;;4.40;99.90;;;;;;5072942;28;20205;-76
2024/03/20 12:09:58;;;;;;;0.73;0.73;;;4.40;99.90;;;;;;5074048;28;20192;-76
2024/03/20 12:12:26;;;;;;;1.58;1.45;;;4.50;99.90;;;;;;5073699;28;20326;-76
2024/03/20 12:14:52;;;;;;;0.57;0.57;;;4.60;99.90;;;;;;5073816;28;20300;-76
2024/03/20 12:17:19;;;;;;;1.42;1.33;;;4.70;99.90;;;;;;5073900;28;20208;-76
2024/03/20 12:19:45;;;;;;;0.80;0.80;;;4.80;99.90;;;;;;5078293;28;20207;-76
2024/03/20 12:22:14;;;;;;;1.55;1.08;;;4.90;99.90;;;;;;5094051;28;20586;-76
2024/03/20 12:24:40;;;;;;;0.70;0.70;;;5.00;99.90;;;;;;5093759;28;20222;-76
2024/03/20 12:27:09;;;;;;;0.80;0.80;;;5.00;99.90;;;;;;5093895;28;20686;-76
2024/03/20 12:29:35;;;;;;;0.80;0.80;;;5.00;99.90;;;;;;5092219;28;20243;-76
2024/03/20 12:32:01;;;;;;;0.80;0.80;;;5.00;99.90;;;;;;5093846;28;20545;-76
2024/03/20 12:34:26;;;;;;;0.70;0.70;;;5.10;99.90;;;;;;5093649;28;20687;-76
2024/03/20 12:36:52;;;;;;;0.68;0.68;;;4.90;99.90;;;;;;5093450;28;20566;-76
2024/03/20 12:39:18;;;;;;;0.70;0.70;;;4.70;99.90;;;;;;5093330;28;20208;-76
2024/03/20 12:41:43;;;;;;;0.70;0.70;;;4.60;99.90;;;;;;5092771;28;20200;-77
2024/03/20 12:44:09;;;;;;;0.73;0.73;;;4.60;99.90;;;;;;5093546;28;20212;-76
2024/03/20 12:46:35;;;;;;;0.70;0.70;;;4.70;99.90;;;;;;5092155;28;20238;-76
2024/03/20 12:49:02;;;;;;;0.60;0.60;;;4.60;99.90;;;;;;5093559;28;20231;-76
2024/03/20 12:51:28;;;;;;;0.80;0.80;;;4.60;99.90;;;;;;5092140;28;20539;-77
2024/03/20 12:53:55;;;;;;;0.93;0.93;;;4.60;99.90;;;;;;5093403;28;20196;-77
2024/03/20 12:56:21;;;;;;;0.70;0.70;;;4.70;99.90;;;;;;5093306;28;20283;-76
2024/03/20 12:58:47;;;;;;;0.70;0.70;;;4.60;99.90;;;;;;5093348;28;20228;-76
2024/03/20 13:01:13;;;;;;;0.55;0.55;;;4.60;99.90;;;;;;5093275;28;20290;-76